Nakaei Maru — JK5610 — position and weather

sailwx.info

Track history (hours):
 
Tides and Currents Weather Stations Pressure Air Temp Water Temp Dewpoint Dewpoint Depression Visibility Wind Speed Wind Dir Waves Ship Positions

Nakaei Maru

Last reported at 2017-Oct-17 21:54 UTC. Time now 2017-Oct-18 00:24 UTC.
Position N 35°31' E 139°46'.

Length 95 m; draft 4 m.

Type: Tanker. MMSI: 431401925.

Date/timePositionNaut miles runAvg speedWind from/ knotsBaromVisibWave heightAir tempDewpointWater temp
2017-Oct-17 21:54N 35°31' E 139°46'1 2.3
2017-Oct-17 21:30N 35°30' E 139°46'4 7.6
2017-Oct-17 21:00N 35°27' E 139°43'611.7
2017-Oct-17 20:31N 35°30' E 139°50'0 0.2
2017-Oct-17 20:00N 35°30' E 139°50'0 0.0
2017-Oct-17 19:24N 35°30' E 139°50'0 0.0
2017-Oct-17 18:57N 35°30' E 139°50'0 0.0
2017-Oct-17 18:27N 35°30' E 139°50'0 0.0
2017-Oct-17 17:33N 35°30' E 139°50'0 0.0
2017-Oct-17 17:30N 35°30' E 139°50'0 0.0
2017-Oct-17 17:00N 35°30' E 139°50'0 0.0
2017-Oct-17 16:30N 35°30' E 139°50'0 0.0
2017-Oct-17 16:00N 35°30' E 139°50'0 0.0
2017-Oct-17 15:30N 35°30' E 139°50'0 0.0
2017-Oct-17 15:00N 35°30' E 139°50'0 0.0
2017-Oct-17 14:30N 35°30' E 139°50'0 0.0
2017-Oct-17 14:00N 35°30' E 139°50'0 0.0
2017-Oct-17 13:30N 35°30' E 139°50'0 0.0
2017-Oct-17 13:00N 35°30' E 139°50'0 0.0
2017-Oct-17 12:27N 35°30' E 139°50'0 0.0
2017-Oct-17 12:00N 35°30' E 139°50'0 0.0
2017-Oct-17 11:27N 35°30' E 139°50'0 0.0
2017-Oct-17 11:00N 35°30' E 139°50'0 0.0
2017-Oct-17 10:27N 35°30' E 139°50'0 0.0
2017-Oct-17 10:00N 35°30' E 139°50'0 0.0
2017-Oct-17 09:18N 35°30' E 139°50'0 0.0
2017-Oct-17 09:00N 35°30' E 139°50'0 0.0
2017-Oct-17 08:30N 35°30' E 139°50'0 0.2
2017-Oct-17 08:00N 35°30' E 139°50'3 5.3
2017-Oct-17 07:30N 35°32' E 139°48'0 0.0
2017-Oct-17 06:55N 35°32' E 139°48'0 0.0
2017-Oct-17 06:31N 35°32' E 139°48'0 0.0
2017-Oct-17 05:58N 35°32' E 139°48'0 0.0
2017-Oct-17 05:25N 35°32' E 139°48'0 0.0
2017-Oct-17 05:01N 35°32' E 139°48'0 0.0
2017-Oct-17 04:31N 35°32' E 139°48'0 0.0
2017-Oct-17 04:01N 35°32' E 139°48'0 0.0
2017-Oct-17 03:13N 35°32' E 139°48'0 0.0
2017-Oct-17 03:01N 35°32' E 139°48'0 0.0
2017-Oct-17 02:19N 35°32' E 139°48'0 0.0
2017-Oct-17 02:00N 35°32' E 139°48'1 2.2
2017-Oct-17 01:30N 35°31' E 139°48'2 3.4
2017-Oct-17 01:00N 35°30' E 139°50'0 0.0
2017-Oct-17 00:15N 35°30' E 139°50'0 0.0
2017-Oct-16 23:54N 35°30' E 139°50'0 0.0
2017-Oct-16 23:21N 35°30' E 139°50'0 0.0
2017-Oct-16 23:00N 35°30' E 139°50'0 0.0
2017-Oct-16 22:27N 35°30' E 139°50'0 0.0
2017-Oct-16 21:57N 35°30' E 139°50'0 0.0
2017-Oct-16 21:21N 35°30' E 139°50'0 0.0
2017-Oct-16 21:00N 35°30' E 139°50'0 0.0
2017-Oct-16 20:30N 35°30' E 139°50'0 0.0
2017-Oct-16 20:00N 35°30' E 139°50'0 0.0
2017-Oct-16 19:30N 35°30' E 139°50'0 0.0
2017-Oct-16 19:00N 35°30' E 139°50'0 0.0
2017-Oct-16 18:30N 35°30' E 139°50'0 0.0
2017-Oct-16 18:00N 35°30' E 139°50'0 0.0
2017-Oct-16 16:30N 35°30' E 139°50'0 0.0
2017-Oct-16 15:51N 35°30' E 139°50'0 0.0
2017-Oct-16 15:24N 35°30' E 139°50'0 0.0
2017-Oct-16 15:00N 35°30' E 139°50'0 0.0
2017-Oct-16 14:30N 35°30' E 139°50'0 0.0
2017-Oct-16 13:21N 35°30' E 139°50'0 0.0
2017-Oct-16 12:57N 35°30' E 139°50'0 0.0
2017-Oct-16 12:27N 35°30' E 139°50'0 0.1
2017-Oct-16 11:24N 35°30' E 139°50'0 0.0
2017-Oct-16 11:00N 35°30' E 139°50'0 0.0
2017-Oct-16 09:15N 35°30' E 139°50'0 0.0
2017-Oct-16 08:57N 35°30' E 139°50'0 0.0
2017-Oct-16 08:27N 35°30' E 139°50'0 0.0
2017-Oct-16 07:30N 35°30' E 139°50'0 0.0
2017-Oct-16 06:57N 35°30' E 139°50'0 0.0
2017-Oct-16 06:30N 35°30' E 139°50'2 3.4
2017-Oct-16 06:00N 35°30' E 139°48'2 3.7
2017-Oct-16 05:30N 35°31' E 139°46'0 0.0
2017-Oct-15 21:26N 35°31' E 139°46'0 0.0
2017-Oct-15 21:00N 35°31' E 139°46'2 4.6
2017-Oct-15 20:30N 35°30' E 139°44'3 5.8
2017-Oct-15 20:00N 35°27' E 139°45'713.3
2017-Oct-15 19:30N 35°30' E 139°52'  
2017-Oct-13 01:37N 35°30' E 140°01'1 6.1
2017-Oct-13 01:25N 35°31' E 140°00'1 0.1
2017-Oct-12 14:16N 35°32' E 140°01'0 0.0
2017-Oct-12 13:55N 35°32' E 140°01'0 0.0
2017-Oct-12 12:46N 35°32' E 140°01'0 0.0
2017-Oct-12 12:28N 35°32' E 140°01'0 0.0
2017-Oct-12 11:52N 35°32' E 140°01'0 0.0
2017-Oct-12 11:16N 35°32' E 140°01'0 0.0
2017-Oct-12 10:46N 35°32' E 140°01'0 0.0
2017-Oct-12 10:28N 35°32' E 140°01'0 0.0
2017-Oct-12 09:46N 35°32' E 140°01'0 0.0
2017-Oct-12 09:28N 35°32' E 140°01'0 0.1
2017-Oct-12 08:49N 35°32' E 140°01'3 9.1
2017-Oct-12 08:29N 35°32' E 139°57'612.6
2017-Oct-12 08:00N 35°31' E 139°50'2 3.8
2017-Oct-12 07:30N 35°32' E 139°48'0 0.0
2017-Oct-12 06:52N 35°32' E 139°48'0 0.0
2017-Oct-12 06:28N 35°32' E 139°48'0 0.0
2017-Oct-12 05:58N 35°32' E 139°48'0 0.0
2017-Oct-12 05:28N 35°32' E 139°48'0 0.0
2017-Oct-12 04:58N 35°32' E 139°48'0 0.0
2017-Oct-12 04:28N 35°32' E 139°48'0 0.0
2017-Oct-12 03:58N 35°32' E 139°48'0 0.0
2017-Oct-12 03:19N 35°32' E 139°48'0 0.0
2017-Oct-12 02:58N 35°32' E 139°48'0 0.0
2017-Oct-12 02:25N 35°32' E 139°48'0 0.0
2017-Oct-12 02:00N 35°32' E 139°48'1 1.6
2017-Oct-12 01:30N 35°31' E 139°48'2 0.1
2017-Oct-10 22:06N 35°31' E 139°46'0 2.2
2017-Oct-10 22:00N 35°31' E 139°46'4 7.5
2017-Oct-10 21:25N 35°28' E 139°43'4 8.7
2017-Oct-10 21:00N 35°28' E 139°47'2 0.1
2017-Oct-09 06:51N 35°31' E 139°46'1 0.1
2017-Oct-08 22:06N 35°31' E 139°46'0 2.5
2017-Oct-08 22:00N 35°31' E 139°46'4 8.2
2017-Oct-08 21:28N 35°28' E 139°42'2 4.5
2017-Oct-08 21:00N 35°27' E 139°45'4 7.8
2017-Oct-08 20:30N 35°29' E 139°49'611.2
2017-Oct-08 20:00N 35°32' E 139°55'  
Track history (hours):
 
Tides and Currents Weather Stations Pressure Air Temp Water Temp Dewpoint Dewpoint Depression Visibility Wind Speed Wind Dir Waves Ship Positions

Nakaei Maru

Last reported at 2017-Oct-17 21:54 UTC. Time now 2017-Oct-18 00:24 UTC.
Position N 35°31' E 139°46'.

Length 95 m; draft 4 m.

Type: Tanker. MMSI: 431401925.

Date/timePositionNaut miles runAvg speedWind from/ knotsBaromVisibWave heightAir tempDewpointWater temp
2017-Oct-17 21:54N 35°31' E 139°46'1 2.3
2017-Oct-17 21:30N 35°30' E 139°46'4 7.6
2017-Oct-17 21:00N 35°27' E 139°43'611.7
2017-Oct-17 20:31N 35°30' E 139°50'0 0.2
2017-Oct-17 20:00N 35°30' E 139°50'0 0.0
2017-Oct-17 19:24N 35°30' E 139°50'0 0.0
2017-Oct-17 18:57N 35°30' E 139°50'0 0.0
2017-Oct-17 18:27N 35°30' E 139°50'0 0.0
2017-Oct-17 17:33N 35°30' E 139°50'0 0.0
2017-Oct-17 17:30N 35°30' E 139°50'0 0.0
2017-Oct-17 17:00N 35°30' E 139°50'0 0.0
2017-Oct-17 16:30N 35°30' E 139°50'0 0.0
2017-Oct-17 16:00N 35°30' E 139°50'0 0.0
2017-Oct-17 15:30N 35°30' E 139°50'0 0.0
2017-Oct-17 15:00N 35°30' E 139°50'0 0.0
2017-Oct-17 14:30N 35°30' E 139°50'0 0.0
2017-Oct-17 14:00N 35°30' E 139°50'0 0.0
2017-Oct-17 13:30N 35°30' E 139°50'0 0.0
2017-Oct-17 13:00N 35°30' E 139°50'0 0.0
2017-Oct-17 12:27N 35°30' E 139°50'0 0.0
2017-Oct-17 12:00N 35°30' E 139°50'0 0.0
2017-Oct-17 11:27N 35°30' E 139°50'0 0.0
2017-Oct-17 11:00N 35°30' E 139°50'0 0.0
2017-Oct-17 10:27N 35°30' E 139°50'0 0.0
2017-Oct-17 10:00N 35°30' E 139°50'0 0.0
2017-Oct-17 09:18N 35°30' E 139°50'0 0.0
2017-Oct-17 09:00N 35°30' E 139°50'0 0.0
2017-Oct-17 08:30N 35°30' E 139°50'0 0.2
2017-Oct-17 08:00N 35°30' E 139°50'3 5.3
2017-Oct-17 07:30N 35°32' E 139°48'0 0.0
2017-Oct-17 06:55N 35°32' E 139°48'0 0.0
2017-Oct-17 06:31N 35°32' E 139°48'0 0.0
2017-Oct-17 05:58N 35°32' E 139°48'0 0.0
2017-Oct-17 05:25N 35°32' E 139°48'0 0.0
2017-Oct-17 05:01N 35°32' E 139°48'0 0.0
2017-Oct-17 04:31N 35°32' E 139°48'0 0.0
2017-Oct-17 04:01N 35°32' E 139°48'0 0.0
2017-Oct-17 03:13N 35°32' E 139°48'0 0.0
2017-Oct-17 03:01N 35°32' E 139°48'0 0.0
2017-Oct-17 02:19N 35°32' E 139°48'0 0.0
2017-Oct-17 02:00N 35°32' E 139°48'1 2.2
2017-Oct-17 01:30N 35°31' E 139°48'2 3.4
2017-Oct-17 01:00N 35°30' E 139°50'0 0.0
2017-Oct-17 00:15N 35°30' E 139°50'0 0.0
2017-Oct-16 23:54N 35°30' E 139°50'0 0.0
2017-Oct-16 23:21N 35°30' E 139°50'0 0.0
2017-Oct-16 23:00N 35°30' E 139°50'0 0.0
2017-Oct-16 22:27N 35°30' E 139°50'0 0.0
2017-Oct-16 21:57N 35°30' E 139°50'0 0.0
2017-Oct-16 21:21N 35°30' E 139°50'0 0.0
2017-Oct-16 21:00N 35°30' E 139°50'0 0.0
2017-Oct-16 20:30N 35°30' E 139°50'0 0.0
2017-Oct-16 20:00N 35°30' E 139°50'0 0.0
2017-Oct-16 19:30N 35°30' E 139°50'0 0.0
2017-Oct-16 19:00N 35°30' E 139°50'0 0.0
2017-Oct-16 18:30N 35°30' E 139°50'0 0.0
2017-Oct-16 18:00N 35°30' E 139°50'0 0.0
2017-Oct-16 16:30N 35°30' E 139°50'0 0.0
2017-Oct-16 15:51N 35°30' E 139°50'0 0.0
2017-Oct-16 15:24N 35°30' E 139°50'0 0.0
2017-Oct-16 15:00N 35°30' E 139°50'0 0.0
2017-Oct-16 14:30N 35°30' E 139°50'0 0.0
2017-Oct-16 13:21N 35°30' E 139°50'0 0.0
2017-Oct-16 12:57N 35°30' E 139°50'0 0.0
2017-Oct-16 12:27N 35°30' E 139°50'0 0.1
2017-Oct-16 11:24N 35°30' E 139°50'0 0.0
2017-Oct-16 11:00N 35°30' E 139°50'0 0.0
2017-Oct-16 09:15N 35°30' E 139°50'0 0.0
2017-Oct-16 08:57N 35°30' E 139°50'0 0.0
2017-Oct-16 08:27N 35°30' E 139°50'0 0.0
2017-Oct-16 07:30N 35°30' E 139°50'0 0.0
2017-Oct-16 06:57N 35°30' E 139°50'0 0.0
2017-Oct-16 06:30N 35°30' E 139°50'2 3.4
2017-Oct-16 06:00N 35°30' E 139°48'2 3.7
2017-Oct-16 05:30N 35°31' E 139°46'0 0.0
2017-Oct-15 21:26N 35°31' E 139°46'0 0.0
2017-Oct-15 21:00N 35°31' E 139°46'2 4.6
2017-Oct-15 20:30N 35°30' E 139°44'3 5.8
2017-Oct-15 20:00N 35°27' E 139°45'713.3
2017-Oct-15 19:30N 35°30' E 139°52'  
2017-Oct-13 01:37N 35°30' E 140°01'1 6.1
2017-Oct-13 01:25N 35°31' E 140°00'1 0.1
2017-Oct-12 14:16N 35°32' E 140°01'0 0.0
2017-Oct-12 13:55N 35°32' E 140°01'0 0.0
2017-Oct-12 12:46N 35°32' E 140°01'0 0.0
2017-Oct-12 12:28N 35°32' E 140°01'0 0.0
2017-Oct-12 11:52N 35°32' E 140°01'0 0.0
2017-Oct-12 11:16N 35°32' E 140°01'0 0.0
2017-Oct-12 10:46N 35°32' E 140°01'0 0.0
2017-Oct-12 10:28N 35°32' E 140°01'0 0.0
2017-Oct-12 09:46N 35°32' E 140°01'0 0.0
2017-Oct-12 09:28N 35°32' E 140°01'0 0.1
2017-Oct-12 08:49N 35°32' E 140°01'3 9.1
2017-Oct-12 08:29N 35°32' E 139°57'612.6
2017-Oct-12 08:00N 35°31' E 139°50'2 3.8
2017-Oct-12 07:30N 35°32' E 139°48'0 0.0
2017-Oct-12 06:52N 35°32' E 139°48'0 0.0
2017-Oct-12 06:28N 35°32' E 139°48'0 0.0
2017-Oct-12 05:58N 35°32' E 139°48'0 0.0
2017-Oct-12 05:28N 35°32' E 139°48'0 0.0
2017-Oct-12 04:58N 35°32' E 139°48'0 0.0
2017-Oct-12 04:28N 35°32' E 139°48'0 0.0
2017-Oct-12 03:58N 35°32' E 139°48'0 0.0
2017-Oct-12 03:19N 35°32' E 139°48'0 0.0
2017-Oct-12 02:58N 35°32' E 139°48'0 0.0
2017-Oct-12 02:25N 35°32' E 139°48'0 0.0
2017-Oct-12 02:00N 35°32' E 139°48'1 1.6
2017-Oct-12 01:30N 35°31' E 139°48'2 0.1
2017-Oct-10 22:06N 35°31' E 139°46'0 2.2
2017-Oct-10 22:00N 35°31' E 139°46'4 7.5
2017-Oct-10 21:25N 35°28' E 139°43'4 8.7
2017-Oct-10 21:00N 35°28' E 139°47'2 0.1
2017-Oct-09 06:51N 35°31' E 139°46'1 0.1
2017-Oct-08 22:06N 35°31' E 139°46'0 2.5
2017-Oct-08 22:00N 35°31' E 139°46'4 8.2
2017-Oct-08 21:28N 35°28' E 139°42'2 4.5
2017-Oct-08 21:00N 35°27' E 139°45'4 7.8
2017-Oct-08 20:30N 35°29' E 139°49'611.2
2017-Oct-08 20:00N 35°32' E 139°55'  

Dump ship's entire track history